Time;durP1;ratioP1;P1;durP2;ratioP2;P2;SDS_P1;SDS_P2;PMS_P1;PMS_P2;Temp;Humidity;BMP_temperature;BMP_pressure;BME280_temperature;BME280_humidity;BME280_pressure;Samples;Min_cycle;Max_cycle;Signal;HPM_P1;HPM_P2
2021/12/04 03:04:26;;;;;;;;;;;;;;;;;;;;;
2021/12/04 03:07:06;;;;;;;8.20;3.25;;;11.90;99.90;;;;;;5308338;28;20848;-73
2021/12/04 03:09:41;;;;;;;7.03;3.10;;;11.80;99.90;;;;;;5308366;28;20015;-72
2021/12/04 03:12:14;;;;;;;8.68;3.20;;;11.90;99.90;;;;;;5308443;28;20032;-72
2021/12/04 03:14:45;;;;;;;6.13;3.22;;;12.00;99.90;;;;;;5308377;28;20030;-73
2021/12/04 03:17:18;;;;;;;7.80;3.70;;;11.90;99.90;;;;;;5308525;28;20099;-73
2021/12/04 03:19:51;;;;;;;10.13;3.65;;;11.90;99.90;;;;;;5289779;28;20020;-73
2021/12/04 03:22:23;;;;;;;7.22;3.90;;;11.80;99.90;;;;;;5308230;28;20020;-74
2021/12/04 03:24:56;;;;;;;7.80;5.20;;;11.90;99.90;;;;;;5298155;28;20019;-73
2021/12/04 03:27:30;;;;;;;8.65;4.75;;;11.80;99.90;;;;;;5287087;28;20144;-73
2021/12/04 03:30:06;;;;;;;8.50;4.50;;;11.90;99.90;;;;;;5286864;28;20027;-73
2021/12/04 03:41:06;;;;;;;12.93;4.85;;;12.00;99.90;;;;;;5286962;28;20027;-73
2021/12/04 03:43:37;;;;;;;14.63;6.68;;;12.20;99.90;;;;;;5286337;28;20106;-73
2021/12/04 03:46:10;;;;;;;9.35;3.60;;;12.00;99.90;;;;;;5286532;28;20115;-73
2021/12/04 03:51:13;;;;;;;6.45;3.03;;;12.50;99.90;;;;;;5286429;28;20031;-73
2021/12/04 03:53:44;;;;;;;6.30;3.10;;;13.10;99.90;;;;;;5286142;28;20084;-72
2021/12/04 03:56:17;;;;;;;9.65;3.20;;;13.10;99.90;;;;;;5286330;28;20467;-72
2021/12/04 03:58:48;;;;;;;8.82;3.25;;;12.80;99.90;;;;;;5286148;28;20039;-73
2021/12/04 04:01:19;;;;;;;7.28;3.03;;;12.90;99.90;;;;;;5286219;28;20024;-73
2021/12/04 04:03:50;;;;;;;6.63;3.08;;;12.80;99.90;;;;;;5260722;28;20080;-72
2021/12/04 04:06:21;;;;;;;5.68;3.00;;;12.90;99.90;;;;;;5272033;28;20030;-72
2021/12/04 04:08:52;;;;;;;7.53;3.08;;;12.80;99.90;;;;;;5272092;28;20055;-71
2021/12/04 04:11:23;;;;;;;7.47;3.28;;;13.00;99.90;;;;;;5271887;28;20024;-73
2021/12/04 04:13:54;;;;;;;7.30;3.28;;;12.70;99.90;;;;;;5271802;28;20035;-73
2021/12/04 04:16:25;;;;;;;8.90;2.97;;;12.70;99.90;;;;;;5253821;28;20130;-73
2021/12/04 04:18:55;;;;;;;9.07;3.30;;;12.90;99.90;;;;;;5271740;28;20038;-73
2021/12/04 04:21:27;;;;;;;8.68;3.10;;;12.80;99.90;;;;;;5271953;28;20024;-73
2021/12/04 04:23:57;;;;;;;11.45;3.60;;;12.70;99.90;;;;;;5271784;28;20107;-73
2021/12/04 04:26:28;;;;;;;9.43;3.53;;;12.60;99.90;;;;;;5271956;28;20146;-73
2021/12/04 04:28:59;;;;;;;11.27;4.00;;;12.30;99.90;;;;;;5271726;28;20028;-73
2021/12/04 04:31:31;;;;;;;10.07;3.55;;;12.20;99.90;;;;;;5271539;28;20027;-73
2021/12/04 04:34:06;;;;;;;6.57;3.40;;;12.90;99.90;;;;;;5271682;28;20527;-73
2021/12/04 05:10:21;;;;;;;9.20;4.25;;;12.70;99.90;;;;;;5271561;28;20035;-74
2021/12/04 05:12:59;;;;;;;11.70;3.92;;;12.80;99.90;;;;;;5256345;28;20036;-73
2021/12/04 05:21:05;;;;;;;13.48;4.80;;;12.80;99.90;;;;;;5270977;28;20529;-73
2021/12/04 05:23:49;;;;;;;14.23;5.38;;;12.60;99.90;;;;;;5270812;28;20129;-73
2021/12/04 05:26:25;;;;;;;12.20;5.25;;;12.50;99.90;;;;;;5270709;28;20024;-73
2021/12/04 05:29:00;;;;;;;10.65;6.15;;;12.50;99.90;;;;;;5270936;28;20165;-73
2021/12/04 05:31:31;;;;;;;10.30;5.75;;;12.40;99.90;;;;;;5270445;28;20168;-73
2021/12/04 05:34:01;;;;;;;11.95;5.50;;;12.40;99.90;;;;;;5270418;28;20060;-73
2021/12/04 05:36:32;;;;;;;11.10;5.82;;;12.50;99.90;;;;;;5270376;28;20499;-74
2021/12/04 05:39:04;;;;;;;17.85;6.07;;;12.30;99.90;;;;;;5270391;28;20062;-74
2021/12/04 05:41:36;;;;;;;13.10;6.18;;;12.40;99.90;;;;;;5270520;28;20043;-73
2021/12/04 05:44:09;;;;;;;9.50;6.32;;;12.30;99.90;;;;;;5270641;28;20020;-74
2021/12/04 05:47:09;;;;;;;14.82;6.40;;;12.40;99.90;;;;;;5270222;28;20035;-73
2021/12/04 05:49:49;;;;;;;14.77;6.53;;;12.40;99.90;;;;;;5269552;28;20044;-73
2021/12/04 05:55:21;;;;;;;13.00;6.80;;;12.40;99.90;;;;;;5248708;28;20024;-73
2021/12/04 05:57:52;;;;;;;17.67;7.00;;;12.20;99.90;;;;;;5270255;28;20042;-73
2021/12/04 06:00:25;;;;;;;14.07;7.50;;;12.20;99.90;;;;;;5270065;28;20479;-73
2021/12/04 06:02:56;;;;;;;10.10;6.32;;;12.20;99.90;;;;;;5269773;28;20063;-74
2021/12/04 06:05:27;;;;;;;10.52;6.97;;;12.30;99.90;;;;;;5270171;28;20028;-74
2021/12/04 06:07:57;;;;;;;12.52;8.00;;;12.30;99.90;;;;;;5269884;28;20099;-74
2021/12/04 06:10:29;;;;;;;20.30;12.65;;;12.20;99.90;;;;;;5270107;28;20028;-74
2021/12/04 06:13:00;;;;;;;15.35;8.35;;;12.20;99.90;;;;;;5269843;28;20031;-74
2021/12/04 06:15:31;;;;;;;18.08;8.18;;;12.20;99.90;;;;;;5269998;28;20020;-73
2021/12/04 06:18:02;;;;;;;16.17;11.15;;;12.10;99.90;;;;;;5251761;28;20527;-73
2021/12/04 06:23:23;;;;;;;17.92;12.43;;;12.20;99.90;;;;;;5270140;28;20548;-73
2021/12/04 06:25:55;;;;;;;17.85;13.07;;;12.20;99.90;;;;;;5251501;28;20395;-74
2021/12/04 06:28:28;;;;;;;15.98;11.98;;;12.30;99.90;;;;;;5269434;28;20459;-73
2021/12/04 06:31:00;;;;;;;16.23;10.48;;;12.20;99.90;;;;;;5269750;28;20020;-73
2021/12/04 06:33:31;;;;;;;16.45;8.48;;;12.30;99.90;;;;;;5269316;28;20835;-72
2021/12/04 06:36:02;;;;;;;20.95;9.15;;;12.30;99.90;;;;;;5269283;28;20020;-72
2021/12/04 06:38:33;;;;;;;8.32;6.05;;;12.20;99.90;;;;;;5269301;28;20032;-73
2021/12/04 06:41:05;;;;;;;7.05;6.25;;;12.80;99.90;;;;;;5269358;28;20029;-73
2021/12/04 06:43:37;;;;;;;9.23;5.75;;;12.60;99.90;;;;;;5269535;28;20024;-72
2021/12/04 06:46:09;;;;;;;10.52;5.70;;;12.50;99.90;;;;;;5269234;28;20038;-73
2021/12/04 06:49:00;;;;;;;13.85;7.35;;;12.50;99.90;;;;;;5269335;28;20387;-72
2021/12/04 06:51:38;;;;;;;12.60;7.50;;;12.50;99.90;;;;;;5268958;28;20063;-73
2021/12/04 06:54:12;;;;;;;12.73;6.70;;;12.60;99.90;;;;;;5268764;28;20073;-72
2021/12/04 06:56:43;;;;;;;15.38;6.88;;;12.70;99.90;;;;;;5268894;28;20107;-73
2021/12/04 06:59:22;;;;;;;10.40;6.38;;;12.60;99.90;;;;;;5269199;28;20492;-73
2021/12/04 07:01:53;;;;;;;12.18;7.45;;;12.70;99.90;;;;;;5268863;28;20028;-73
2021/12/04 07:04:30;;;;;;;10.38;7.22;;;12.70;99.90;;;;;;5269392;28;20051;-74
2021/12/04 07:07:03;;;;;;;12.20;8.02;;;12.60;99.90;;;;;;5269205;28;20020;-74
2021/12/04 07:09:36;;;;;;;10.73;7.78;;;12.50;99.90;;;;;;5269196;28;20474;-74
2021/12/04 07:12:08;;;;;;;12.55;6.63;;;12.50;99.90;;;;;;5269092;28;20057;-74
2021/12/04 07:14:39;;;;;;;10.63;6.45;;;12.60;99.90;;;;;;5269308;28;20027;-73
2021/12/04 07:17:10;;;;;;;10.00;5.82;;;12.50;99.90;;;;;;5268979;28;20032;-73
2021/12/04 07:19:41;;;;;;;10.30;6.30;;;12.60;99.90;;;;;;5269044;28;20104;-73
2021/12/04 07:22:12;;;;;;;11.95;6.55;;;12.70;99.90;;;;;;5269188;28;20086;-73
2021/12/04 07:24:43;;;;;;;9.70;5.57;;;12.70;99.90;;;;;;5268942;28;20024;-73
2021/12/04 07:27:14;;;;;;;8.43;5.32;;;12.70;99.90;;;;;;5268951;28;20032;-74
2021/12/04 07:29:45;;;;;;;11.27;6.00;;;12.80;99.90;;;;;;5269340;28;20020;-73
2021/12/04 07:32:15;;;;;;;8.43;6.05;;;12.70;99.90;;;;;;5268860;28;20044;-73
2021/12/04 07:34:46;;;;;;;12.35;6.18;;;12.60;99.90;;;;;;5251003;28;20033;-73
2021/12/04 07:37:17;;;;;;;8.30;6.22;;;12.60;99.90;;;;;;5269033;28;20020;-73
2021/12/04 07:39:48;;;;;;;12.63;5.88;;;12.70;99.90;;;;;;5271335;28;20077;-73
2021/12/04 07:42:19;;;;;;;7.03;4.95;;;12.70;99.90;;;;;;5256048;28;20410;-74
2021/12/04 07:44:50;;;;;;;10.27;4.95;;;12.70;99.90;;;;;;5261798;28;20172;-73
2021/12/04 07:47:21;;;;;;;8.55;4.78;;;12.70;99.90;;;;;;5266472;28;20024;-73
2021/12/04 07:49:53;;;;;;;11.15;4.88;;;12.90;99.90;;;;;;5265545;28;20020;-72
2021/12/04 07:52:23;;;;;;;12.85;5.28;;;12.80;99.90;;;;;;5236684;28;20395;-73
2021/12/04 07:54:54;;;;;;;9.15;4.85;;;12.90;99.90;;;;;;5272256;28;20035;-73
2021/12/04 07:57:26;;;;;;;13.40;6.75;;;12.90;99.90;;;;;;5272279;28;20046;-74
2021/12/04 07:59:56;;;;;;;7.00;5.50;;;12.90;99.90;;;;;;5272526;28;20107;-74
2021/12/04 08:02:27;;;;;;;13.25;6.15;;;12.90;99.90;;;;;;5271988;28;20127;-74
2021/12/04 08:04:58;;;;;;;12.55;6.25;;;12.90;99.90;;;;;;5272148;28;20071;-74
2021/12/04 08:07:29;;;;;;;13.75;6.25;;;13.00;99.90;;;;;;5272882;28;20470;-74
2021/12/04 08:10:00;;;;;;;14.90;6.60;;;13.10;99.90;;;;;;5272916;28;20085;-74
2021/12/04 08:12:31;;;;;;;8.85;5.63;;;13.00;99.90;;;;;;5254098;28;20036;-74
2021/12/04 08:15:07;;;;;;;14.65;7.07;;;13.00;99.90;;;;;;5272271;28;20016;-74
2021/12/04 08:17:39;;;;;;;8.95;5.72;;;13.10;99.90;;;;;;5272024;28;20035;-74
2021/12/04 08:20:12;;;;;;;12.35;7.13;;;13.10;99.90;;;;;;5253805;28;20020;-74
2021/12/04 08:22:43;;;;;;;10.57;6.15;;;13.10;99.90;;;;;;5271860;28;20474;-74
2021/12/04 08:25:18;;;;;;;9.15;4.80;;;13.20;99.90;;;;;;5272076;28;20095;-74
2021/12/04 08:27:50;;;;;;;12.73;5.70;;;13.30;99.90;;;;;;5271835;28;20080;-74
2021/12/04 08:30:24;;;;;;;11.43;5.68;;;13.30;99.90;;;;;;5272126;28;20091;-75
2021/12/04 08:32:56;;;;;;;13.10;5.82;;;13.30;99.90;;;;;;5271469;28;20135;-73
2021/12/04 08:35:31;;;;;;;11.38;4.97;;;13.20;99.90;;;;;;5271491;28;20024;-73
2021/12/04 08:38:02;;;;;;;11.98;5.72;;;13.00;99.90;;;;;;5248919;28;20029;-72
2021/12/04 08:40:33;;;;;;;11.43;6.22;;;13.10;99.90;;;;;;5259927;28;20459;-74
2021/12/04 08:43:05;;;;;;;9.93;5.35;;;13.10;99.90;;;;;;5259232;28;20020;-74
2021/12/04 08:45:41;;;;;;;10.52;5.55;;;13.20;99.90;;;;;;5255193;28;20035;-73
2021/12/04 08:48:12;;;;;;;10.57;5.70;;;13.20;99.90;;;;;;5260526;28;20498;-74
2021/12/04 08:50:43;;;;;;;10.88;5.72;;;13.20;99.90;;;;;;5260094;28;20044;-74
2021/12/04 08:53:14;;;;;;;12.45;6.45;;;13.30;99.90;;;;;;5256065;28;20082;-74
2021/12/04 08:55:46;;;;;;;13.25;8.30;;;13.20;99.90;;;;;;5250165;28;20028;-73
2021/12/04 08:58:17;;;;;;;11.07;6.32;;;13.40;99.90;;;;;;5250162;28;20028;-73
2021/12/04 09:01:01;;;;;;;19.58;11.77;;;13.40;99.90;;;;;;5250214;28;20384;-74
2021/12/04 09:03:36;;;;;;;11.88;5.43;;;13.50;99.90;;;;;;5249872;28;20477;-74
2021/12/04 09:06:06;;;;;;;11.75;4.90;;;13.50;99.90;;;;;;5250186;28;20115;-74
2021/12/04 09:08:38;;;;;;;11.18;4.85;;;13.50;99.90;;;;;;5250411;28;20100;-74
2021/12/04 09:11:14;;;;;;;10.02;6.03;;;13.70;99.90;;;;;;5250355;28;20459;-73
2021/12/04 09:13:47;;;;;;;12.82;5.80;;;13.70;99.90;;;;;;5249536;28;20029;-75
2021/12/04 09:16:18;;;;;;;16.13;6.38;;;13.80;99.90;;;;;;5249519;28;20116;-72
2021/12/04 09:18:49;;;;;;;12.27;6.22;;;13.90;99.90;;;;;;5249157;28;20056;-74
2021/12/04 09:21:20;;;;;;;10.40;6.45;;;14.00;99.90;;;;;;5248630;28;20423;-74
2021/12/04 09:24:04;;;;;;;9.95;6.38;;;14.00;99.90;;;;;;5249145;28;20115;-73
2021/12/04 09:26:44;;;;;;;11.40;6.78;;;14.00;99.90;;;;;;5249380;28;20493;-74
2021/12/04 09:32:29;;;;;;;8.82;6.43;;;14.20;99.90;;;;;;5249060;28;20064;-74
2021/12/04 10:20:38;;;;;;;11.98;6.15;;;14.70;99.90;;;;;;5248438;28;20044;-74
2021/12/04 10:34:01;;;;;;;15.10;6.50;;;14.70;99.90;;;;;;5248800;28;20139;-74
2021/12/04 10:36:37;;;;;;;13.60;6.18;;;14.60;99.90;;;;;;5250982;28;20095;-73
2021/12/04 10:39:10;;;;;;;13.75;7.10;;;14.60;99.90;;;;;;5263147;28;20028;-74
2021/12/04 10:41:44;;;;;;;15.88;6.53;;;14.60;99.90;;;;;;5269808;28;20375;-74
2021/12/04 10:44:24;;;;;;;13.30;6.68;;;14.60;99.90;;;;;;5250718;28;20081;-73
2021/12/04 10:47:17;;;;;;;16.75;6.28;;;14.60;99.90;;;;;;5269304;28;20027;-74
2021/12/04 10:52:47;;;;;;;13.07;6.00;;;14.70;99.90;;;;;;5269036;28;20042;-73
2021/12/04 10:55:47;;;;;;;12.68;5.72;;;14.70;99.90;;;;;;5269160;28;20081;-74
2021/12/04 11:19:03;;;;;;;12.80;5.15;;;14.80;99.90;;;;;;5273373;28;20039;-74
2021/12/04 11:22:15;;;;;;;8.73;5.28;;;14.70;99.90;;;;;;5273278;28;20494;-73
2021/12/04 11:27:22;;;;;;;9.60;4.10;;;14.90;99.90;;;;;;5273071;28;20475;-73
2021/12/04 11:38:25;;;;;;;12.80;5.63;;;15.00;99.90;;;;;;5273376;28;20024;-74
2021/12/04 11:43:38;;;;;;;8.60;3.28;;;15.20;99.90;;;;;;5272882;28;20051;-74
2021/12/04 11:47:09;;;;;;;12.40;3.45;;;15.20;99.90;;;;;;5272835;28;20095;-73
2021/12/04 11:49:11;;;;;;;9.82;4.28;;;15.20;99.90;;;;;;5259073;28;20032;-74
2021/12/04 11:51:47;;;;;;;9.32;3.17;;;15.30;99.90;;;;;;5272624;28;20028;-74
2021/12/04 11:54:18;;;;;;;8.90;3.40;;;15.20;99.90;;;;;;5272409;28;20028;-74
2021/12/04 11:57:03;;;;;;;7.40;3.22;;;15.20;99.90;;;;;;5272630;28;20031;-74
2021/12/04 11:59:36;;;;;;;9.45;3.75;;;15.20;99.90;;;;;;5246276;28;20032;-75
2021/12/04 12:02:10;;;;;;;9.15;3.17;;;15.20;99.90;;;;;;5233184;28;20040;-74
2021/12/04 12:04:47;;;;;;;12.32;4.80;;;15.00;99.90;;;;;;5233461;28;20479;-74
2021/12/04 12:07:27;;;;;;;9.27;2.15;;;13.50;99.90;;;;;;5251501;28;20035;-74
2021/12/04 12:10:05;;;;;;;12.27;5.18;;;12.40;99.90;;;;;;5251530;28;20119;-74
2021/12/04 12:12:40;;;;;;;7.40;2.97;;;11.70;99.90;;;;;;5251222;28;20471;-74
2021/12/04 12:15:38;;;;;;;4.95;1.00;;;11.40;99.90;;;;;;5234008;28;20479;-74
2021/12/04 12:18:13;;;;;;;7.35;3.35;;;11.40;99.90;;;;;;5247102;28;20032;-74
2021/12/04 12:20:54;;;;;;;6.47;2.60;;;11.30;99.90;;;;;;5251149;28;20115;-74
2021/12/04 12:23:29;;;;;;;3.05;2.00;;;11.10;99.90;;;;;;5251162;28;20028;-73
2021/12/04 12:26:18;;;;;;;6.43;4.30;;;10.60;99.90;;;;;;5258366;28;20479;-74
2021/12/04 12:37:27;;;;;;;10.43;5.57;;;10.40;99.90;;;;;;5271909;28;20073;-73
2021/12/04 12:40:01;;;;;;;8.45;5.40;;;10.50;99.90;;;;;;5271814;28;20540;-74
2021/12/04 12:42:39;;;;;;;1.90;0.90;;;10.60;99.90;;;;;;5271615;28;20020;-73
2021/12/04 12:45:29;;;;;;;40.75;21.67;;;10.30;99.90;;;;;;5271806;28;20021;-74
2021/12/04 12:48:06;;;;;;;;;;;10.40;99.90;;;;;;5271902;28;20028;-74
2021/12/04 12:50:43;;;;;;;10.13;5.55;;;10.10;99.90;;;;;;5271649;28;20282;-74
2021/12/04 12:53:26;;;;;;;11.45;5.80;;;10.20;99.90;;;;;;5265007;28;20028;-74
2021/12/04 12:56:10;;;;;;;8.18;4.28;;;10.20;99.90;;;;;;5260500;28;20016;-75
2021/12/04 12:58:56;;;;;;;20.52;10.25;;;10.00;99.90;;;;;;5261130;28;20024;-74
2021/12/04 13:13:42;;;;;;;2.30;0.77;;;9.80;99.90;;;;;;5243639;28;20040;-72
2021/12/04 13:16:31;;;;;;;5.07;0.77;;;9.70;99.90;;;;;;5270954;28;20016;-74
2021/12/04 13:19:07;;;;;;;11.80;4.88;;;9.80;99.90;;;;;;5270910;28;20016;-73
2021/12/04 13:21:40;;;;;;;6.13;1.60;;;9.70;99.90;;;;;;5270735;28;20058;-73
2021/12/04 13:24:13;;;;;;;6.40;2.22;;;9.60;99.90;;;;;;5262137;28;20016;-73
2021/12/04 13:26:56;;;;;;;1.48;0.60;;;9.30;99.90;;;;;;5256743;28;20115;-73
2021/12/04 13:29:32;;;;;;;3.70;1.20;;;9.50;99.90;;;;;;5249798;28;20078;-72
2021/12/04 13:32:04;;;;;;;3.50;0.70;;;9.60;99.90;;;;;;5249441;28;20112;-75
2021/12/04 13:34:37;;;;;;;2.03;1.10;;;9.40;99.90;;;;;;5251183;28;20033;-71
2021/12/04 13:37:09;;;;;;;2.78;1.10;;;9.60;99.90;;;;;;5269417;28;20383;-74
2021/12/04 13:39:42;;;;;;;2.00;1.08;;;9.80;99.90;;;;;;5261404;28;20081;-73
2021/12/04 13:42:14;;;;;;;7.03;3.80;;;9.70;99.90;;;;;;5252353;28;20186;-73
2021/12/04 13:44:47;;;;;;;4.32;1.10;;;9.70;99.90;;;;;;5252273;28;20145;-74
2021/12/04 13:47:25;;;;;;;9.48;5.25;;;9.60;99.90;;;;;;5251256;28;20115;-73
2021/12/04 13:50:00;;;;;;;5.63;4.05;;;9.50;99.90;;;;;;5258007;28;20040;-73
2021/12/04 13:52:32;;;;;;;21.25;11.52;;;9.80;99.90;;;;;;5255652;28;20039;-74
2021/12/04 13:55:18;;;;;;;7.85;3.03;;;9.50;99.90;;;;;;5255544;28;20399;-73
2021/12/04 13:57:50;;;;;;;8.13;3.80;;;9.60;99.90;;;;;;5253352;28;20040;-74
2021/12/04 14:00:21;;;;;;;7.82;4.70;;;9.70;99.90;;;;;;5257999;28;20028;-73
2021/12/04 14:02:52;;;;;;;4.40;2.33;;;9.90;99.90;;;;;;5248567;28;20045;-74
2021/12/04 14:05:30;;;;;;;7.35;2.35;;;9.50;99.90;;;;;;5230989;28;20037;-73
2021/12/04 14:08:06;;;;;;;5.50;2.95;;;9.60;99.90;;;;;;5248826;28;20015;-73
2021/12/04 14:10:49;;;;;;;6.47;2.58;;;9.80;99.90;;;;;;5248767;28;20035;-73
2021/12/04 14:13:25;;;;;;;5.30;2.90;;;9.90;99.90;;;;;;5215396;28;20127;-73
2021/12/04 14:15:56;;;;;;;5.25;3.83;;;10.00;99.90;;;;;;5231095;28;20017;-74
2021/12/04 14:18:29;;;;;;;6.72;4.57;;;9.70;99.90;;;;;;5248788;28;20149;-76
2021/12/04 14:21:01;;;;;;;10.60;7.93;;;9.60;99.90;;;;;;5249027;28;20420;-74
2021/12/04 14:23:34;;;;;;;4.50;3.00;;;9.60;99.90;;;;;;5248912;28;20062;-74
2021/12/04 14:26:05;;;;;;;5.55;3.10;;;9.60;99.90;;;;;;5248679;28;20025;-73
2021/12/04 14:28:43;;;;;;;5.47;3.42;;;9.80;99.90;;;;;;5248490;28;20051;-74
2021/12/04 14:31:21;;;;;;;7.78;2.33;;;9.50;99.90;;;;;;5248346;28;20036;-73
2021/12/04 14:33:52;;;;;;;7.15;5.30;;;9.60;99.90;;;;;;5267509;28;20885;-74
2021/12/04 14:36:23;;;;;;;4.25;2.53;;;9.50;99.90;;;;;;5269562;28;20077;-74
2021/12/04 14:38:54;;;;;;;4.78;2.97;;;9.50;99.90;;;;;;5269446;28;20089;-73
2021/12/04 14:41:29;;;;;;;3.80;2.53;;;9.40;99.90;;;;;;5269717;28;20367;-75
2021/12/04 14:44:00;;;;;;;7.05;3.65;;;9.30;99.90;;;;;;5269330;28;20056;-74
2021/12/04 14:46:33;;;;;;;4.68;3.58;;;9.20;99.90;;;;;;5269584;28;20107;-74
2021/12/04 14:49:09;;;;;;;3.92;3.05;;;9.20;99.90;;;;;;5269040;28;20047;-74
2021/12/04 14:51:40;;;;;;;6.68;3.35;;;9.10;99.90;;;;;;5269424;28;20494;-74
2021/12/04 14:54:11;;;;;;;10.57;7.85;;;8.90;99.90;;;;;;5269149;28;20082;-74
2021/12/04 14:56:42;;;;;;;6.80;5.38;;;9.30;99.90;;;;;;5269150;28;20044;-74
2021/12/04 14:59:15;;;;;;;5.25;2.92;;;9.00;99.90;;;;;;5269165;28;20028;-74
2021/12/04 15:01:46;;;;;;;5.55;2.00;;;9.00;99.90;;;;;;5267540;28;20024;-74
2021/12/04 15:04:17;;;;;;;2.58;0.75;;;9.10;99.90;;;;;;5269523;28;20032;-74
2021/12/04 15:06:48;;;;;;;18.65;11.93;;;9.20;99.90;;;;;;5269063;28;20070;-74
2021/12/04 15:09:19;;;;;;;13.38;8.40;;;9.30;99.90;;;;;;5268957;28;20028;-74
2021/12/04 15:11:50;;;;;;;20.45;15.07;;;9.30;99.90;;;;;;5268841;28;20024;-75
2021/12/04 15:14:31;;;;;;;9.00;4.75;;;9.20;99.90;;;;;;5268972;28;20047;-74
2021/12/04 15:17:11;;;;;;;14.68;8.48;;;9.10;99.90;;;;;;5269230;28;20379;-74
2021/12/04 15:19:44;;;;;;;7.47;3.78;;;9.20;99.90;;;;;;5268939;28;20024;-73
2021/12/04 15:22:21;;;;;;;7.43;3.25;;;9.00;99.90;;;;;;5269510;28;20024;-74
2021/12/04 15:24:52;;;;;;;10.75;6.68;;;9.20;99.90;;;;;;5268932;28;20363;-74
2021/12/04 15:27:26;;;;;;;9.80;2.58;;;9.20;99.90;;;;;;5269013;28;20081;-74
2021/12/04 15:29:59;;;;;;;6.50;2.28;;;9.00;99.90;;;;;;5268857;28;20027;-73
2021/12/04 15:32:30;;;;;;;8.80;4.35;;;9.00;99.90;;;;;;5268790;28;20044;-74
2021/12/04 15:35:25;;;;;;;8.35;4.55;;;9.20;99.90;;;;;;5268443;28;20024;-74
2021/12/04 15:38:07;;;;;;;6.72;3.60;;;9.20;99.90;;;;;;5247923;28;20025;-73
2021/12/04 15:43:28;;;;;;;4.55;1.40;;;9.30;99.90;;;;;;5268811;28;20055;-73
2021/12/04 15:49:30;;;;;;;3.75;2.42;;;9.10;99.90;;;;;;5259681;28;20036;-73
2021/12/04 15:55:03;;;;;;;17.98;6.68;;;8.90;99.90;;;;;;5252558;28;20040;-74
2021/12/04 15:57:41;;;;;;;22.80;9.63;;;8.90;99.90;;;;;;5269166;28;20534;-73
2021/12/04 16:00:17;;;;;;;12.30;5.57;;;8.90;99.90;;;;;;5268861;28;20073;-74
2021/12/04 16:02:57;;;;;;;10.57;4.97;;;9.10;99.90;;;;;;5271194;28;20454;-74
2021/12/04 16:05:34;;;;;;;15.55;8.25;;;9.00;99.90;;;;;;5257308;28;20035;-73
2021/12/04 16:08:11;;;;;;;8.90;3.50;;;9.20;99.90;;;;;;5258260;28;20039;-74
2021/12/04 16:10:46;;;;;;;9.05;3.75;;;9.20;99.90;;;;;;5255580;28;20024;-73
2021/12/04 16:13:34;;;;;;;14.70;5.80;;;9.10;99.90;;;;;;5264701;28;20121;-73
2021/12/04 16:16:18;;;;;;;5.78;2.97;;;9.20;99.90;;;;;;5264936;28;20055;-72
2021/12/04 16:18:52;;;;;;;6.88;3.05;;;9.10;99.90;;;;;;5265929;28;20020;-74
2021/12/04 16:21:24;;;;;;;4.30;1.77;;;8.90;99.90;;;;;;5262645;28;20033;-73
2021/12/04 16:23:55;;;;;;;4.90;1.48;;;9.00;99.90;;;;;;5254183;28;20021;-74
2021/12/04 16:26:28;;;;;;;5.47;1.95;;;8.80;99.90;;;;;;5257896;28;20029;-74
2021/12/04 16:29:07;;;;;;;8.05;4.07;;;9.00;99.90;;;;;;5243066;28;20023;-74
2021/12/04 16:40:14;;;;;;;7.30;1.90;;;9.00;99.90;;;;;;5272119;28;20386;-74
2021/12/04 16:42:46;;;;;;;5.38;1.60;;;9.00;99.90;;;;;;5253402;28;20024;-73
2021/12/04 16:45:26;;;;;;;4.35;1.25;;;8.80;99.90;;;;;;5253139;28;20042;-74
2021/12/04 16:48:05;;;;;;;3.28;1.67;;;8.80;99.90;;;;;;5271403;28;20013;-73
2021/12/04 16:54:51;;;;;;;4.40;1.17;;;9.00;99.90;;;;;;5271507;28;20114;-72
2021/12/04 16:57:19;;;;;;;3.92;2.53;;;9.00;99.90;;;;;;5271210;28;20119;-74
2021/12/04 16:59:53;;;;;;;6.32;1.42;;;8.90;99.90;;;;;;5270812;28;20495;-73
2021/12/04 17:02:28;;;;;;;6.75;1.77;;;8.80;99.90;;;;;;5270085;28;20036;-72
2021/12/04 17:05:01;;;;;;;7.97;1.88;;;9.00;99.90;;;;;;5244052;28;20035;-72
2021/12/04 17:07:33;;;;;;;5.07;2.33;;;9.00;99.90;;;;;;5253247;28;20028;-73
2021/12/04 17:10:04;;;;;;;8.25;3.20;;;8.90;99.90;;;;;;5252859;28;20024;-71
2021/12/04 17:12:37;;;;;;;7.72;3.17;;;8.90;99.90;;;;;;5253206;28;20078;-72
2021/12/04 17:15:18;;;;;;;9.45;4.72;;;9.00;99.90;;;;;;5270570;28;20064;-72
2021/12/04 17:17:50;;;;;;;9.95;5.40;;;9.00;99.90;;;;;;5271683;28;20043;-72
2021/12/04 17:20:28;;;;;;;11.52;3.47;;;9.10;99.90;;;;;;5270952;28;20036;-73
2021/12/04 17:22:59;;;;;;;5.18;2.05;;;9.00;99.90;;;;;;5271652;28;20031;-72
2021/12/04 17:25:31;;;;;;;5.43;2.47;;;9.20;99.90;;;;;;5270825;28;20024;-73
2021/12/04 17:28:03;;;;;;;4.65;2.10;;;9.20;99.90;;;;;;5253601;28;20476;-72
2021/12/04 17:30:34;;;;;;;6.45;2.05;;;9.10;99.90;;;;;;5270951;28;20080;-73
2021/12/04 17:33:06;;;;;;;10.18;6.00;;;9.20;99.90;;;;;;5252412;28;20052;-71
2021/12/04 17:35:38;;;;;;;6.93;3.97;;;9.20;99.90;;;;;;5270655;28;20020;-72
2021/12/04 17:38:10;;;;;;;18.38;10.02;;;9.00;99.90;;;;;;5270462;28;20028;-73
2021/12/04 17:40:44;;;;;;;13.30;7.10;;;9.00;99.90;;;;;;5270091;28;20054;-73
2021/12/04 17:43:15;;;;;;;10.73;4.97;;;9.00;99.90;;;;;;5269740;28;20035;-72
2021/12/04 17:45:47;;;;;;;16.02;8.98;;;8.90;99.90;;;;;;5270592;28;20467;-74
2021/12/04 17:48:18;;;;;;;18.80;10.02;;;9.10;99.90;;;;;;5270284;28;20032;-74
2021/12/04 17:50:49;;;;;;;14.63;11.70;;;9.00;99.90;;;;;;5270317;28;20012;-74
2021/12/04 17:53:22;;;;;;;13.93;9.15;;;9.10;99.90;;;;;;5270201;28;20044;-74
2021/12/04 17:55:53;;;;;;;17.08;9.77;;;9.10;99.90;;;;;;5270067;28;20375;-75
2021/12/04 17:58:25;;;;;;;6.30;4.15;;;8.90;99.90;;;;;;5269723;28;20043;-75
2021/12/04 18:01:01;;;;;;;5.60;3.03;;;9.00;99.90;;;;;;5269967;28;20126;-75
2021/12/04 18:03:33;;;;;;;4.82;2.40;;;9.10;99.90;;;;;;5269430;28;20051;-74
2021/12/04 18:06:09;;;;;;;3.17;1.00;;;9.10;99.90;;;;;;5269564;28;20457;-75
2021/12/04 18:08:42;;;;;;;25.60;20.48;;;9.10;99.90;;;;;;5270134;28;20028;-76
2021/12/04 18:11:17;;;;;;;4.43;2.88;;;9.10;99.90;;;;;;5269923;28;20447;-75
2021/12/04 18:13:51;;;;;;;11.35;2.72;;;9.20;99.90;;;;;;5268000;28;20391;-76
2021/12/04 18:16:28;;;;;;;5.60;1.95;;;9.30;99.90;;;;;;5228432;28;20016;-75
2021/12/04 18:18:59;;;;;;;5.82;4.32;;;9.30;99.90;;;;;;5269794;28;20032;-74
2021/12/04 18:21:30;;;;;;;6.97;3.00;;;9.20;99.90;;;;;;5269212;28;20099;-75
2021/12/04 18:24:01;;;;;;;4.68;1.73;;;9.00;99.90;;;;;;5268956;28;20035;-75
2021/12/04 18:26:32;;;;;;;8.52;6.60;;;9.10;99.90;;;;;;5269432;28;20471;-75
2021/12/04 18:29:03;;;;;;;16.27;8.55;;;9.20;99.90;;;;;;5269302;28;20070;-75
2021/12/04 18:31:36;;;;;;;13.20;7.32;;;9.10;99.90;;;;;;5269368;28;20024;-74
2021/12/04 18:34:07;;;;;;;14.20;7.15;;;9.10;99.90;;;;;;5269257;28;20036;-73
2021/12/04 18:36:39;;;;;;;9.55;5.47;;;9.10;99.90;;;;;;5269696;28;20027;-75
2021/12/04 18:39:15;;;;;;;11.43;5.63;;;9.20;99.90;;;;;;5269377;28;20035;-73
2021/12/04 18:41:48;;;;;;;8.23;3.38;;;9.30;99.90;;;;;;5269319;28;20069;-76
2021/12/04 18:44:20;;;;;;;6.88;3.13;;;9.10;99.90;;;;;;5269283;28;20016;-75
2021/12/04 18:46:52;;;;;;;4.80;2.20;;;9.20;99.90;;;;;;5269028;28;20028;-74
2021/12/04 18:49:25;;;;;;;3.30;1.48;;;9.20;99.90;;;;;;5269230;28;20024;-74
2021/12/04 18:51:57;;;;;;;3.17;1.35;;;9.20;99.90;;;;;;5269021;28;20020;-74
2021/12/04 18:54:28;;;;;;;2.70;0.65;;;9.20;99.90;;;;;;5269129;28;20028;-75
2021/12/04 18:57:00;;;;;;;4.93;1.20;;;9.00;99.90;;;;;;5269073;28;20028;-73
2021/12/04 18:59:31;;;;;;;1.58;0.90;;;9.10;99.90;;;;;;5269084;28;20028;-75
2021/12/04 19:02:04;;;;;;;1.85;0.88;;;9.00;99.90;;;;;;5250920;28;20467;-75
2021/12/04 19:04:36;;;;;;;4.68;0.85;;;9.10;99.90;;;;;;5269019;28;20059;-75
2021/12/04 19:07:07;;;;;;;4.78;1.33;;;9.20;99.90;;;;;;5269352;28;20036;-75
2021/12/04 19:09:38;;;;;;;3.92;1.00;;;9.20;99.90;;;;;;5269214;28;20017;-74
2021/12/04 19:12:09;;;;;;;5.72;1.67;;;9.10;99.90;;;;;;5268648;28;20024;-75
2021/12/04 19:14:41;;;;;;;4.68;2.03;;;9.20;99.90;;;;;;5269271;28;20092;-74
2021/12/04 19:17:15;;;;;;;2.25;1.10;;;9.20;99.90;;;;;;5268959;28;20035;-75
2021/12/04 19:19:46;;;;;;;9.02;1.88;;;9.20;99.90;;;;;;5268926;28;20024;-75
2021/12/04 19:22:17;;;;;;;5.32;2.15;;;9.30;99.90;;;;;;5268863;28;20040;-75
2021/12/04 19:24:48;;;;;;;6.57;2.92;;;9.20;99.90;;;;;;5268919;28;20048;-76
2021/12/04 19:27:19;;;;;;;4.70;2.70;;;9.20;99.90;;;;;;5269179;28;20121;-74
2021/12/04 19:29:53;;;;;;;4.93;2.30;;;9.20;99.90;;;;;;5268875;28;20443;-76
2021/12/04 19:32:28;;;;;;;6.85;2.70;;;9.10;99.90;;;;;;5268955;28;20088;-75
2021/12/04 19:35:25;;;;;;;6.00;4.00;;;9.10;99.90;;;;;;5269931;28;20028;-72
2021/12/04 19:52:11;;;;;;;4.13;2.30;;;8.90;99.90;;;;;;5253296;28;20025;-73
2021/12/04 19:54:55;;;;;;;6.40;2.20;;;9.00;99.90;;;;;;5251430;28;20162;-75
2021/12/04 19:57:35;;;;;;;7.43;4.70;;;9.00;99.90;;;;;;5251513;28;20025;-75